sensor_id;sensor_type;location;lat;lon;timestamp;P1;durP1;ratioP1;P2;durP2;ratioP2
38465;SDS011;24244;51.950;5.902;2024-01-30T00:01:56;6.15;;;3.30;;
38465;SDS011;24244;51.950;5.902;2024-01-30T00:04:23;6.35;;;2.80;;
38465;SDS011;24244;51.950;5.902;2024-01-30T00:06:50;5.80;;;3.42;;
38465;SDS011;24244;51.950;5.902;2024-01-30T00:09:19;7.38;;;3.78;;
38465;SDS011;24244;51.950;5.902;2024-01-30T00:11:47;6.28;;;3.03;;
38465;SDS011;24244;51.950;5.902;2024-01-30T00:14:14;6.28;;;3.40;;
38465;SDS011;24244;51.950;5.902;2024-01-30T00:16:42;5.90;;;3.40;;
38465;SDS011;24244;51.950;5.902;2024-01-30T00:19:09;7.63;;;3.95;;
38465;SDS011;24244;51.950;5.902;2024-01-30T00:21:36;6.63;;;3.30;;
38465;SDS011;24244;51.950;5.902;2024-01-30T00:24:03;6.78;;;3.45;;
38465;SDS011;24244;51.950;5.902;2024-01-30T00:26:31;6.85;;;3.60;;
38465;SDS011;24244;51.950;5.902;2024-01-30T00:28:59;7.50;;;3.50;;
38465;SDS011;24244;51.950;5.902;2024-01-30T00:31:28;7.55;;;3.33;;
38465;SDS011;24244;51.950;5.902;2024-01-30T00:33:55;7.13;;;3.50;;
38465;SDS011;24244;51.950;5.902;2024-01-30T00:36:22;5.93;;;3.15;;
38465;SDS011;24244;51.950;5.902;2024-01-30T00:38:50;6.82;;;3.22;;
38465;SDS011;24244;51.950;5.902;2024-01-30T00:41:17;6.57;;;3.40;;
38465;SDS011;24244;51.950;5.902;2024-01-30T00:43:44;6.40;;;3.35;;
38465;SDS011;24244;51.950;5.902;2024-01-30T00:46:12;7.80;;;3.35;;
38465;SDS011;24244;51.950;5.902;2024-01-30T00:48:39;7.38;;;2.95;;
38465;SDS011;24244;51.950;5.902;2024-01-30T00:51:07;6.47;;;3.20;;
38465;SDS011;24244;51.950;5.902;2024-01-30T00:53:34;7.82;;;3.40;;
38465;SDS011;24244;51.950;5.902;2024-01-30T00:56:01;5.55;;;3.33;;
38465;SDS011;24244;51.950;5.902;2024-01-30T00:58:28;7.07;;;3.60;;
38465;SDS011;24244;51.950;5.902;2024-01-30T01:00:55;7.07;;;3.55;;
38465;SDS011;24244;51.950;5.902;2024-01-30T01:03:23;6.13;;;3.47;;
38465;SDS011;24244;51.950;5.902;2024-01-30T01:05:50;7.30;;;3.78;;
38465;SDS011;24244;51.950;5.902;2024-01-30T01:08:17;7.38;;;3.42;;
38465;SDS011;24244;51.950;5.902;2024-01-30T01:10:44;6.97;;;3.97;;
38465;SDS011;24244;51.950;5.902;2024-01-30T01:13:11;7.15;;;3.50;;
38465;SDS011;24244;51.950;5.902;2024-01-30T01:15:38;7.53;;;3.90;;
38465;SDS011;24244;51.950;5.902;2024-01-30T01:18:05;8.70;;;4.28;;
38465;SDS011;24244;51.950;5.902;2024-01-30T01:20:34;8.10;;;3.72;;
38465;SDS011;24244;51.950;5.902;2024-01-30T01:23:00;6.88;;;3.30;;
38465;SDS011;24244;51.950;5.902;2024-01-30T01:25:27;6.88;;;3.50;;
38465;SDS011;24244;51.950;5.902;2024-01-30T01:27:54;7.45;;;3.40;;
38465;SDS011;24244;51.950;5.902;2024-01-30T01:30:22;7.93;;;3.53;;
38465;SDS011;24244;51.950;5.902;2024-01-30T01:32:49;6.70;;;3.45;;
38465;SDS011;24244;51.950;5.902;2024-01-30T01:35:21;6.00;;;3.13;;
38465;SDS011;24244;51.950;5.902;2024-01-30T01:37:50;6.32;;;3.28;;
38465;SDS011;24244;51.950;5.902;2024-01-30T01:40:25;7.60;;;3.45;;
38465;SDS011;24244;51.950;5.902;2024-01-30T01:42:56;6.15;;;3.20;;
38465;SDS011;24244;51.950;5.902;2024-01-30T01:45:23;7.40;;;3.38;;
38465;SDS011;24244;51.950;5.902;2024-01-30T01:47:50;9.40;;;3.42;;
38465;SDS011;24244;51.950;5.902;2024-01-30T01:50:18;7.60;;;3.63;;
38465;SDS011;24244;51.950;5.902;2024-01-30T01:52:47;7.50;;;3.80;;
38465;SDS011;24244;51.950;5.902;2024-01-30T01:55:16;6.18;;;2.97;;
38465;SDS011;24244;51.950;5.902;2024-01-30T01:57:48;7.95;;;3.75;;
38465;SDS011;24244;51.950;5.902;2024-01-30T02:00:15;6.57;;;3.22;;
38465;SDS011;24244;51.950;5.902;2024-01-30T02:02:43;9.30;;;3.53;;
38465;SDS011;24244;51.950;5.902;2024-01-30T02:05:12;6.10;;;3.58;;
38465;SDS011;24244;51.950;5.902;2024-01-30T02:07:39;6.55;;;3.10;;
38465;SDS011;24244;51.950;5.902;2024-01-30T02:10:07;7.50;;;3.65;;
38465;SDS011;24244;51.950;5.902;2024-01-30T02:12:37;6.10;;;3.00;;
38465;SDS011;24244;51.950;5.902;2024-01-30T02:15:05;6.75;;;3.58;;
38465;SDS011;24244;51.950;5.902;2024-01-30T02:17:33;7.20;;;4.05;;
38465;SDS011;24244;51.950;5.902;2024-01-30T02:20:01;6.70;;;3.63;;
38465;SDS011;24244;51.950;5.902;2024-01-30T02:22:30;7.05;;;3.90;;
38465;SDS011;24244;51.950;5.902;2024-01-30T02:24:58;6.97;;;3.75;;
38465;SDS011;24244;51.950;5.902;2024-01-30T02:27:25;6.95;;;4.00;;
38465;SDS011;24244;51.950;5.902;2024-01-30T02:29:52;9.85;;;4.20;;
38465;SDS011;24244;51.950;5.902;2024-01-30T02:32:19;7.75;;;4.28;;
38465;SDS011;24244;51.950;5.902;2024-01-30T02:34:46;6.80;;;3.90;;
38465;SDS011;24244;51.950;5.902;2024-01-30T02:37:13;7.43;;;4.40;;
38465;SDS011;24244;51.950;5.902;2024-01-30T02:39:41;9.45;;;4.10;;
38465;SDS011;24244;51.950;5.902;2024-01-30T02:42:08;7.80;;;4.50;;
38465;SDS011;24244;51.950;5.902;2024-01-30T02:44:35;6.45;;;3.65;;
38465;SDS011;24244;51.950;5.902;2024-01-30T02:47:02;8.30;;;4.05;;
38465;SDS011;24244;51.950;5.902;2024-01-30T02:49:30;7.03;;;4.13;;
38465;SDS011;24244;51.950;5.902;2024-01-30T02:51:57;10.05;;;4.65;;
38465;SDS011;24244;51.950;5.902;2024-01-30T02:54:24;9.93;;;5.07;;
38465;SDS011;24244;51.950;5.902;2024-01-30T02:56:52;8.10;;;4.47;;
38465;SDS011;24244;51.950;5.902;2024-01-30T02:59:19;9.48;;;5.38;;
38465;SDS011;24244;51.950;5.902;2024-01-30T03:01:46;8.82;;;5.20;;
38465;SDS011;24244;51.950;5.902;2024-01-30T03:04:14;7.97;;;4.38;;
38465;SDS011;24244;51.950;5.902;2024-01-30T03:06:44;6.93;;;4.43;;
38465;SDS011;24244;51.950;5.902;2024-01-30T03:09:12;8.85;;;4.93;;
38465;SDS011;24244;51.950;5.902;2024-01-30T03:11:40;9.40;;;5.18;;
38465;SDS011;24244;51.950;5.902;2024-01-30T03:14:08;10.68;;;4.80;;
38465;SDS011;24244;51.950;5.902;2024-01-30T03:16:37;8.88;;;4.65;;
38465;SDS011;24244;51.950;5.902;2024-01-30T03:19:05;8.30;;;5.22;;
38465;SDS011;24244;51.950;5.902;2024-01-30T03:21:34;8.80;;;4.72;;
38465;SDS011;24244;51.950;5.902;2024-01-30T03:24:01;8.55;;;5.00;;
38465;SDS011;24244;51.950;5.902;2024-01-30T03:26:29;9.57;;;4.70;;
38465;SDS011;24244;51.950;5.902;2024-01-30T03:28:55;8.35;;;4.65;;
38465;SDS011;24244;51.950;5.902;2024-01-30T03:31:24;8.52;;;5.13;;
38465;SDS011;24244;51.950;5.902;2024-01-30T03:33:51;10.23;;;4.97;;
38465;SDS011;24244;51.950;5.902;2024-01-30T03:36:18;10.10;;;4.95;;
38465;SDS011;24244;51.950;5.902;2024-01-30T03:38:45;8.73;;;4.68;;
38465;SDS011;24244;51.950;5.902;2024-01-30T03:41:12;10.27;;;5.05;;
38465;SDS011;24244;51.950;5.902;2024-01-30T03:43:39;10.57;;;4.65;;
38465;SDS011;24244;51.950;5.902;2024-01-30T03:46:06;10.05;;;5.18;;
38465;SDS011;24244;51.950;5.902;2024-01-30T03:48:35;8.55;;;5.00;;
38465;SDS011;24244;51.950;5.902;2024-01-30T03:51:02;8.70;;;4.35;;
38465;SDS011;24244;51.950;5.902;2024-01-30T03:53:29;8.68;;;4.40;;
38465;SDS011;24244;51.950;5.902;2024-01-30T03:55:57;11.07;;;5.13;;
38465;SDS011;24244;51.950;5.902;2024-01-30T03:58:23;9.07;;;4.80;;
38465;SDS011;24244;51.950;5.902;2024-01-30T04:00:50;9.13;;;4.40;;
38465;SDS011;24244;51.950;5.902;2024-01-30T04:03:18;7.18;;;4.63;;
38465;SDS011;24244;51.950;5.902;2024-01-30T04:05:46;9.85;;;4.68;;
38465;SDS011;24244;51.950;5.902;2024-01-30T04:08:13;9.77;;;4.50;;
38465;SDS011;24244;51.950;5.902;2024-01-30T04:10:40;8.75;;;5.45;;
38465;SDS011;24244;51.950;5.902;2024-01-30T04:13:07;9.38;;;5.03;;
38465;SDS011;24244;51.950;5.902;2024-01-30T04:15:37;8.48;;;4.35;;
38465;SDS011;24244;51.950;5.902;2024-01-30T04:18:05;8.95;;;4.85;;
38465;SDS011;24244;51.950;5.902;2024-01-30T04:20:32;7.43;;;4.15;;
38465;SDS011;24244;51.950;5.902;2024-01-30T04:23:00;8.45;;;4.65;;
38465;SDS011;24244;51.950;5.902;2024-01-30T04:25:27;9.15;;;4.72;;
38465;SDS011;24244;51.950;5.902;2024-01-30T04:27:54;8.88;;;4.72;;
38465;SDS011;24244;51.950;5.902;2024-01-30T04:30:21;8.05;;;4.50;;
38465;SDS011;24244;51.950;5.902;2024-01-30T04:32:48;9.00;;;4.22;;
38465;SDS011;24244;51.950;5.902;2024-01-30T04:35:15;8.57;;;4.50;;
38465;SDS011;24244;51.950;5.902;2024-01-30T04:37:42;7.90;;;4.80;;
38465;SDS011;24244;51.950;5.902;2024-01-30T04:40:10;8.27;;;3.95;;
38465;SDS011;24244;51.950;5.902;2024-01-30T04:42:38;7.97;;;4.50;;
38465;SDS011;24244;51.950;5.902;2024-01-30T04:45:05;8.65;;;4.85;;
38465;SDS011;24244;51.950;5.902;2024-01-30T04:47:33;7.07;;;4.05;;
38465;SDS011;24244;51.950;5.902;2024-01-30T04:50:01;8.23;;;3.80;;
38465;SDS011;24244;51.950;5.902;2024-01-30T04:52:29;9.63;;;5.03;;
38465;SDS011;24244;51.950;5.902;2024-01-30T04:54:56;7.70;;;3.78;;
38465;SDS011;24244;51.950;5.902;2024-01-30T04:57:24;7.32;;;3.97;;
38465;SDS011;24244;51.950;5.902;2024-01-30T04:59:51;9.65;;;4.38;;
38465;SDS011;24244;51.950;5.902;2024-01-30T05:02:18;8.80;;;4.50;;
38465;SDS011;24244;51.950;5.902;2024-01-30T05:04:45;9.27;;;4.18;;
38465;SDS011;24244;51.950;5.902;2024-01-30T05:07:12;7.60;;;4.03;;
38465;SDS011;24244;51.950;5.902;2024-01-30T05:09:39;6.65;;;3.83;;
38465;SDS011;24244;51.950;5.902;2024-01-30T05:12:06;8.80;;;4.07;;
38465;SDS011;24244;51.950;5.902;2024-01-30T05:14:35;8.25;;;3.35;;
38465;SDS011;24244;51.950;5.902;2024-01-30T05:17:02;6.50;;;3.60;;
38465;SDS011;24244;51.950;5.902;2024-01-30T05:19:29;6.95;;;3.58;;
38465;SDS011;24244;51.950;5.902;2024-01-30T05:21:56;6.43;;;3.22;;
38465;SDS011;24244;51.950;5.902;2024-01-30T05:24:23;7.30;;;3.40;;
38465;SDS011;24244;51.950;5.902;2024-01-30T05:26:53;6.22;;;3.22;;
38465;SDS011;24244;51.950;5.902;2024-01-30T05:29:20;6.22;;;3.40;;
38465;SDS011;24244;51.950;5.902;2024-01-30T05:31:48;8.52;;;4.25;;
38465;SDS011;24244;51.950;5.902;2024-01-30T05:34:15;5.97;;;2.72;;
38465;SDS011;24244;51.950;5.902;2024-01-30T05:36:42;5.85;;;3.22;;
38465;SDS011;24244;51.950;5.902;2024-01-30T05:39:09;5.97;;;2.55;;
38465;SDS011;24244;51.950;5.902;2024-01-30T05:41:36;6.97;;;2.92;;
38465;SDS011;24244;51.950;5.902;2024-01-30T05:44:03;8.57;;;3.60;;
38465;SDS011;24244;51.950;5.902;2024-01-30T05:46:31;6.63;;;3.50;;
38465;SDS011;24244;51.950;5.902;2024-01-30T05:48:59;6.70;;;2.97;;
38465;SDS011;24244;51.950;5.902;2024-01-30T05:51:26;6.25;;;2.92;;
38465;SDS011;24244;51.950;5.902;2024-01-30T05:53:54;6.72;;;2.97;;
38465;SDS011;24244;51.950;5.902;2024-01-30T05:56:21;6.50;;;3.42;;
38465;SDS011;24244;51.950;5.902;2024-01-30T05:58:48;6.25;;;3.10;;
38465;SDS011;24244;51.950;5.902;2024-01-30T06:01:16;7.05;;;3.10;;
38465;SDS011;24244;51.950;5.902;2024-01-30T06:03:43;8.38;;;4.10;;
38465;SDS011;24244;51.950;5.902;2024-01-30T06:06:12;5.80;;;3.55;;
38465;SDS011;24244;51.950;5.902;2024-01-30T06:08:39;6.57;;;3.40;;
38465;SDS011;24244;51.950;5.902;2024-01-30T06:11:05;6.07;;;3.28;;
38465;SDS011;24244;51.950;5.902;2024-01-30T06:13:36;5.60;;;3.03;;
38465;SDS011;24244;51.950;5.902;2024-01-30T06:16:03;6.22;;;2.65;;
38465;SDS011;24244;51.950;5.902;2024-01-30T06:18:30;7.30;;;2.90;;
38465;SDS011;24244;51.950;5.902;2024-01-30T06:20:57;6.57;;;3.00;;
38465;SDS011;24244;51.950;5.902;2024-01-30T06:23:25;7.30;;;2.80;;
38465;SDS011;24244;51.950;5.902;2024-01-30T06:25:52;5.20;;;2.78;;
38465;SDS011;24244;51.950;5.902;2024-01-30T06:28:19;5.72;;;2.97;;
38465;SDS011;24244;51.950;5.902;2024-01-30T06:30:46;6.43;;;3.13;;
38465;SDS011;24244;51.950;5.902;2024-01-30T06:33:13;5.60;;;2.97;;
38465;SDS011;24244;51.950;5.902;2024-01-30T06:35:41;5.55;;;2.95;;
38465;SDS011;24244;51.950;5.902;2024-01-30T06:38:10;6.57;;;2.45;;
38465;SDS011;24244;51.950;5.902;2024-01-30T06:40:38;7.22;;;2.85;;
38465;SDS011;24244;51.950;5.902;2024-01-30T06:43:05;5.72;;;2.92;;
38465;SDS011;24244;51.950;5.902;2024-01-30T06:45:34;7.30;;;3.30;;
38465;SDS011;24244;51.950;5.902;2024-01-30T06:48:01;6.00;;;2.90;;
38465;SDS011;24244;51.950;5.902;2024-01-30T06:50:28;4.70;;;2.53;;
38465;SDS011;24244;51.950;5.902;2024-01-30T06:52:55;4.40;;;2.75;;
38465;SDS011;24244;51.950;5.902;2024-01-30T06:55:22;4.88;;;2.20;;
38465;SDS011;24244;51.950;5.902;2024-01-30T06:57:50;5.63;;;2.35;;
38465;SDS011;24244;51.950;5.902;2024-01-30T07:00:17;5.18;;;2.35;;
38465;SDS011;24244;51.950;5.902;2024-01-30T07:02:46;4.90;;;2.80;;
38465;SDS011;24244;51.950;5.902;2024-01-30T07:05:13;4.90;;;2.40;;
38465;SDS011;24244;51.950;5.902;2024-01-30T07:07:40;5.53;;;2.83;;
38465;SDS011;24244;51.950;5.902;2024-01-30T07:10:08;4.15;;;2.22;;
38465;SDS011;24244;51.950;5.902;2024-01-30T07:12:35;5.35;;;2.70;;
38465;SDS011;24244;51.950;5.902;2024-01-30T07:15:04;5.18;;;2.60;;
38465;SDS011;24244;51.950;5.902;2024-01-30T07:17:34;7.03;;;3.00;;
38465;SDS011;24244;51.950;5.902;2024-01-30T07:20:01;5.15;;;2.65;;
38465;SDS011;24244;51.950;5.902;2024-01-30T07:22:31;5.30;;;2.35;;
38465;SDS011;24244;51.950;5.902;2024-01-30T07:24:58;5.90;;;2.72;;
38465;SDS011;24244;51.950;5.902;2024-01-30T07:27:26;5.25;;;2.40;;
38465;SDS011;24244;51.950;5.902;2024-01-30T07:29:53;5.13;;;2.38;;
38465;SDS011;24244;51.950;5.902;2024-01-30T07:32:21;4.47;;;2.33;;
38465;SDS011;24244;51.950;5.902;2024-01-30T07:34:48;6.43;;;2.53;;
38465;SDS011;24244;51.950;5.902;2024-01-30T07:37:32;5.90;;;2.40;;
38465;SDS011;24244;51.950;5.902;2024-01-30T07:39:59;5.68;;;2.22;;
38465;SDS011;24244;51.950;5.902;2024-01-30T07:42:27;4.20;;;2.13;;
38465;SDS011;24244;51.950;5.902;2024-01-30T07:44:55;5.53;;;2.50;;
38465;SDS011;24244;51.950;5.902;2024-01-30T07:47:23;4.10;;;1.88;;
38465;SDS011;24244;51.950;5.902;2024-01-30T07:49:50;5.72;;;2.83;;
38465;SDS011;24244;51.950;5.902;2024-01-30T07:52:18;6.30;;;2.88;;
38465;SDS011;24244;51.950;5.902;2024-01-30T07:54:45;6.63;;;2.88;;
38465;SDS011;24244;51.950;5.902;2024-01-30T07:57:12;5.10;;;2.63;;
38465;SDS011;24244;51.950;5.902;2024-01-30T07:59:39;5.90;;;2.35;;
38465;SDS011;24244;51.950;5.902;2024-01-30T08:02:05;5.85;;;2.92;;
38465;SDS011;24244;51.950;5.902;2024-01-30T08:04:34;4.38;;;2.35;;
38465;SDS011;24244;51.950;5.902;2024-01-30T08:07:01;6.53;;;3.05;;
38465;SDS011;24244;51.950;5.902;2024-01-30T08:09:28;4.75;;;2.25;;
38465;SDS011;24244;51.950;5.902;2024-01-30T08:11:55;5.78;;;2.80;;
38465;SDS011;24244;51.950;5.902;2024-01-30T08:14:22;4.72;;;2.75;;
38465;SDS011;24244;51.950;5.902;2024-01-30T08:16:49;5.95;;;2.40;;
38465;SDS011;24244;51.950;5.902;2024-01-30T08:19:15;5.30;;;2.58;;
38465;SDS011;24244;51.950;5.902;2024-01-30T08:21:44;5.70;;;2.50;;
38465;SDS011;24244;51.950;5.902;2024-01-30T08:24:10;6.80;;;2.50;;
38465;SDS011;24244;51.950;5.902;2024-01-30T08:26:37;4.78;;;2.90;;
38465;SDS011;24244;51.950;5.902;2024-01-30T08:29:05;6.18;;;2.95;;
38465;SDS011;24244;51.950;5.902;2024-01-30T08:31:31;5.63;;;2.70;;
38465;SDS011;24244;51.950;5.902;2024-01-30T08:33:58;5.97;;;2.60;;
38465;SDS011;24244;51.950;5.902;2024-01-30T08:36:25;5.13;;;2.33;;
38465;SDS011;24244;51.950;5.902;2024-01-30T08:38:53;5.50;;;2.85;;
38465;SDS011;24244;51.950;5.902;2024-01-30T08:41:26;5.90;;;2.78;;
38465;SDS011;24244;51.950;5.902;2024-01-30T08:43:54;6.40;;;3.10;;
38465;SDS011;24244;51.950;5.902;2024-01-30T08:46:21;5.93;;;2.75;;
38465;SDS011;24244;51.950;5.902;2024-01-30T08:48:48;5.55;;;3.17;;
38465;SDS011;24244;51.950;5.902;2024-01-30T08:51:15;4.97;;;2.70;;
38465;SDS011;24244;51.950;5.902;2024-01-30T08:53:42;5.13;;;2.28;;
38465;SDS011;24244;51.950;5.902;2024-01-30T08:56:10;3.97;;;2.35;;
38465;SDS011;24244;51.950;5.902;2024-01-30T08:58:37;6.03;;;2.53;;
38465;SDS011;24244;51.950;5.902;2024-01-30T09:01:04;5.07;;;2.85;;
38465;SDS011;24244;51.950;5.902;2024-01-30T09:03:32;5.20;;;2.80;;
38465;SDS011;24244;51.950;5.902;2024-01-30T09:05:59;5.13;;;2.85;;
38465;SDS011;24244;51.950;5.902;2024-01-30T09:08:26;4.82;;;2.67;;
38465;SDS011;24244;51.950;5.902;2024-01-30T09:10:54;7.07;;;3.42;;
38465;SDS011;24244;51.950;5.902;2024-01-30T09:13:22;5.82;;;2.50;;
38465;SDS011;24244;51.950;5.902;2024-01-30T09:15:49;5.60;;;2.80;;
38465;SDS011;24244;51.950;5.902;2024-01-30T09:18:18;7.13;;;3.13;;
38465;SDS011;24244;51.950;5.902;2024-01-30T09:20:45;5.15;;;2.90;;
38465;SDS011;24244;51.950;5.902;2024-01-30T09:23:13;4.90;;;2.33;;
38465;SDS011;24244;51.950;5.902;2024-01-30T09:25:40;6.63;;;3.05;;
38465;SDS011;24244;51.950;5.902;2024-01-30T09:28:07;4.53;;;2.35;;
38465;SDS011;24244;51.950;5.902;2024-01-30T09:30:36;4.60;;;2.20;;
38465;SDS011;24244;51.950;5.902;2024-01-30T09:33:03;5.07;;;2.38;;
38465;SDS011;24244;51.950;5.902;2024-01-30T09:35:30;4.43;;;2.53;;
38465;SDS011;24244;51.950;5.902;2024-01-30T09:37:57;5.45;;;2.42;;
38465;SDS011;24244;51.950;5.902;2024-01-30T09:40:24;5.47;;;2.55;;
38465;SDS011;24244;51.950;5.902;2024-01-30T09:42:51;5.38;;;2.20;;
38465;SDS011;24244;51.950;5.902;2024-01-30T09:45:20;6.22;;;2.58;;
38465;SDS011;24244;51.950;5.902;2024-01-30T09:47:52;5.05;;;2.92;;
38465;SDS011;24244;51.950;5.902;2024-01-30T09:50:20;7.85;;;2.70;;
38465;SDS011;24244;51.950;5.902;2024-01-30T09:52:47;6.05;;;2.92;;
38465;SDS011;24244;51.950;5.902;2024-01-30T09:55:14;6.28;;;2.90;;
38465;SDS011;24244;51.950;5.902;2024-01-30T09:57:41;5.72;;;2.70;;
38465;SDS011;24244;51.950;5.902;2024-01-30T10:00:09;6.00;;;2.92;;
38465;SDS011;24244;51.950;5.902;2024-01-30T10:02:38;5.40;;;3.13;;
38465;SDS011;24244;51.950;5.902;2024-01-30T10:05:07;7.10;;;3.05;;
38465;SDS011;24244;51.950;5.902;2024-01-30T10:07:35;6.82;;;3.95;;
38465;SDS011;24244;51.950;5.902;2024-01-30T10:10:02;6.10;;;2.75;;
38465;SDS011;24244;51.950;5.902;2024-01-30T10:12:29;6.78;;;3.13;;
38465;SDS011;24244;51.950;5.902;2024-01-30T10:14:56;6.53;;;2.97;;
38465;SDS011;24244;51.950;5.902;2024-01-30T10:17:24;6.43;;;3.15;;
38465;SDS011;24244;51.950;5.902;2024-01-30T10:19:59;4.93;;;2.70;;
38465;SDS011;24244;51.950;5.902;2024-01-30T10:22:29;8.68;;;3.30;;
38465;SDS011;24244;51.950;5.902;2024-01-30T10:24:56;6.25;;;2.53;;
38465;SDS011;24244;51.950;5.902;2024-01-30T10:27:24;6.47;;;3.17;;
38465;SDS011;24244;51.950;5.902;2024-01-30T10:29:53;8.15;;;4.25;;
38465;SDS011;24244;51.950;5.902;2024-01-30T10:32:19;6.95;;;3.00;;
38465;SDS011;24244;51.950;5.902;2024-01-30T10:34:47;5.82;;;3.25;;
38465;SDS011;24244;51.950;5.902;2024-01-30T10:37:15;7.63;;;3.40;;
38465;SDS011;24244;51.950;5.902;2024-01-30T10:39:45;6.40;;;3.25;;
38465;SDS011;24244;51.950;5.902;2024-01-30T10:42:13;7.18;;;3.15;;
38465;SDS011;24244;51.950;5.902;2024-01-30T10:44:44;8.40;;;3.55;;
38465;SDS011;24244;51.950;5.902;2024-01-30T10:47:21;5.43;;;2.80;;
38465;SDS011;24244;51.950;5.902;2024-01-30T10:49:52;7.00;;;3.63;;
38465;SDS011;24244;51.950;5.902;2024-01-30T10:52:21;7.20;;;3.13;;
38465;SDS011;24244;51.950;5.902;2024-01-30T10:54:53;7.30;;;4.00;;
38465;SDS011;24244;51.950;5.902;2024-01-30T10:57:21;6.95;;;3.33;;
38465;SDS011;24244;51.950;5.902;2024-01-30T10:59:49;5.85;;;3.50;;
38465;SDS011;24244;51.950;5.902;2024-01-30T11:02:19;6.85;;;3.25;;
38465;SDS011;24244;51.950;5.902;2024-01-30T11:04:46;8.82;;;3.85;;
38465;SDS011;24244;51.950;5.902;2024-01-30T11:07:15;8.13;;;3.75;;
38465;SDS011;24244;51.950;5.902;2024-01-30T11:09:48;7.72;;;3.92;;
38465;SDS011;24244;51.950;5.902;2024-01-30T11:12:18;7.30;;;4.10;;
38465;SDS011;24244;51.950;5.902;2024-01-30T11:14:48;5.93;;;3.15;;
38465;SDS011;24244;51.950;5.902;2024-01-30T11:17:15;7.60;;;3.70;;
38465;SDS011;24244;51.950;5.902;2024-01-30T11:19:41;7.18;;;3.72;;
38465;SDS011;24244;51.950;5.902;2024-01-30T11:22:10;7.18;;;3.60;;
38465;SDS011;24244;51.950;5.902;2024-01-30T11:24:41;7.78;;;4.13;;
38465;SDS011;24244;51.950;5.902;2024-01-30T11:27:08;5.47;;;2.97;;
38465;SDS011;24244;51.950;5.902;2024-01-30T11:29:41;6.22;;;3.67;;
38465;SDS011;24244;51.950;5.902;2024-01-30T11:32:07;8.10;;;3.28;;
38465;SDS011;24244;51.950;5.902;2024-01-30T11:34:34;6.30;;;3.20;;
38465;SDS011;24244;51.950;5.902;2024-01-30T11:37:07;6.72;;;3.03;;
38465;SDS011;24244;51.950;5.902;2024-01-30T11:39:38;7.07;;;4.10;;
38465;SDS011;24244;51.950;5.902;2024-01-30T11:42:07;4.72;;;2.97;;
38465;SDS011;24244;51.950;5.902;2024-01-30T11:44:35;5.63;;;3.13;;
38465;SDS011;24244;51.950;5.902;2024-01-30T11:47:03;6.07;;;3.42;;
38465;SDS011;24244;51.950;5.902;2024-01-30T11:49:30;5.30;;;3.15;;
38465;SDS011;24244;51.950;5.902;2024-01-30T11:51:57;7.38;;;3.33;;
38465;SDS011;24244;51.950;5.902;2024-01-30T11:54:24;7.03;;;3.17;;
38465;SDS011;24244;51.950;5.902;2024-01-30T11:56:51;5.97;;;3.08;;
38465;SDS011;24244;51.950;5.902;2024-01-30T11:59:18;7.43;;;3.08;;
38465;SDS011;24244;51.950;5.902;2024-01-30T12:01:45;5.70;;;3.00;;
38465;SDS011;24244;51.950;5.902;2024-01-30T12:04:13;6.72;;;3.60;;
38465;SDS011;24244;51.950;5.902;2024-01-30T12:06:40;6.65;;;3.33;;
38465;SDS011;24244;51.950;5.902;2024-01-30T12:09:08;4.93;;;2.53;;
38465;SDS011;24244;51.950;5.902;2024-01-30T12:11:44;4.80;;;2.72;;
38465;SDS011;24244;51.950;5.902;2024-01-30T12:14:11;6.30;;;2.95;;
38465;SDS011;24244;51.950;5.902;2024-01-30T12:16:38;6.97;;;3.53;;
38465;SDS011;24244;51.950;5.902;2024-01-30T12:19:05;5.80;;;3.08;;
38465;SDS011;24244;51.950;5.902;2024-01-30T12:21:34;5.57;;;3.28;;
38465;SDS011;24244;51.950;5.902;2024-01-30T12:24:01;6.80;;;3.47;;
38465;SDS011;24244;51.950;5.902;2024-01-30T12:26:28;8.55;;;3.95;;
38465;SDS011;24244;51.950;5.902;2024-01-30T12:28:55;7.50;;;3.85;;
38465;SDS011;24244;51.950;5.902;2024-01-30T12:31:25;7.20;;;3.67;;
38465;SDS011;24244;51.950;5.902;2024-01-30T12:33:53;5.75;;;3.53;;
38465;SDS011;24244;51.950;5.902;2024-01-30T12:36:20;5.80;;;3.22;;
38465;SDS011;24244;51.950;5.902;2024-01-30T12:38:49;5.18;;;3.00;;
38465;SDS011;24244;51.950;5.902;2024-01-30T12:41:16;4.63;;;2.58;;
38465;SDS011;24244;51.950;5.902;2024-01-30T12:43:43;5.65;;;2.72;;
38465;SDS011;24244;51.950;5.902;2024-01-30T12:46:10;5.07;;;2.50;;
38465;SDS011;24244;51.950;5.902;2024-01-30T12:48:38;3.38;;;2.10;;
38465;SDS011;24244;51.950;5.902;2024-01-30T12:51:05;4.15;;;1.90;;
38465;SDS011;24244;51.950;5.902;2024-01-30T12:53:31;4.05;;;1.50;;
38465;SDS011;24244;51.950;5.902;2024-01-30T12:56:00;5.20;;;1.52;;
38465;SDS011;24244;51.950;5.902;2024-01-30T12:58:27;5.35;;;1.77;;
38465;SDS011;24244;51.950;5.902;2024-01-30T13:00:54;3.10;;;1.20;;
38465;SDS011;24244;51.950;5.902;2024-01-30T13:03:21;4.55;;;1.35;;
38465;SDS011;24244;51.950;5.902;2024-01-30T13:05:48;3.20;;;1.20;;
38465;SDS011;24244;51.950;5.902;2024-01-30T13:08:15;2.30;;;1.10;;
38465;SDS011;24244;51.950;5.902;2024-01-30T13:10:42;3.45;;;1.00;;
38465;SDS011;24244;51.950;5.902;2024-01-30T13:13:13;3.45;;;0.70;;
38465;SDS011;24244;51.950;5.902;2024-01-30T13:15:46;2.67;;;0.95;;
38465;SDS011;24244;51.950;5.902;2024-01-30T13:18:13;2.15;;;0.80;;
38465;SDS011;24244;51.950;5.902;2024-01-30T13:20:40;2.63;;;0.80;;
38465;SDS011;24244;51.950;5.902;2024-01-30T13:23:07;2.22;;;0.82;;
38465;SDS011;24244;51.950;5.902;2024-01-30T13:25:34;2.58;;;0.65;;
38465;SDS011;24244;51.950;5.902;2024-01-30T13:28:01;2.15;;;0.63;;
38465;SDS011;24244;51.950;5.902;2024-01-30T13:30:29;1.27;;;0.40;;
38465;SDS011;24244;51.950;5.902;2024-01-30T13:32:56;2.10;;;0.40;;
38465;SDS011;24244;51.950;5.902;2024-01-30T13:35:23;1.08;;;0.35;;
38465;SDS011;24244;51.950;5.902;2024-01-30T13:37:50;1.42;;;0.32;;
38465;SDS011;24244;51.950;5.902;2024-01-30T13:40:17;1.08;;;0.22;;
38465;SDS011;24244;51.950;5.902;2024-01-30T13:42:44;0.52;;;0.20;;
38465;SDS011;24244;51.950;5.902;2024-01-30T13:45:10;2.17;;;0.20;;
38465;SDS011;24244;51.950;5.902;2024-01-30T13:47:39;0.93;;;0.30;;
38465;SDS011;24244;51.950;5.902;2024-01-30T13:50:06;0.68;;;0.28;;
38465;SDS011;24244;51.950;5.902;2024-01-30T13:52:34;1.05;;;0.38;;
38465;SDS011;24244;51.950;5.902;2024-01-30T13:55:10;1.63;;;0.50;;
38465;SDS011;24244;51.950;5.902;2024-01-30T13:57:37;2.13;;;0.68;;
38465;SDS011;24244;51.950;5.902;2024-01-30T14:00:05;2.03;;;0.68;;
38465;SDS011;24244;51.950;5.902;2024-01-30T14:02:33;3.28;;;0.70;;
38465;SDS011;24244;51.950;5.902;2024-01-30T14:05:02;1.88;;;0.70;;
38465;SDS011;24244;51.950;5.902;2024-01-30T14:07:31;3.20;;;0.90;;
38465;SDS011;24244;51.950;5.902;2024-01-30T14:09:58;3.97;;;1.38;;
38465;SDS011;24244;51.950;5.902;2024-01-30T14:12:25;3.95;;;1.35;;
38465;SDS011;24244;51.950;5.902;2024-01-30T14:14:52;3.83;;;1.30;;
38465;SDS011;24244;51.950;5.902;2024-01-30T14:17:19;5.13;;;1.45;;
38465;SDS011;24244;51.950;5.902;2024-01-30T14:19:45;4.50;;;1.70;;
38465;SDS011;24244;51.950;5.902;2024-01-30T14:22:14;3.22;;;1.85;;
38465;SDS011;24244;51.950;5.902;2024-01-30T14:24:41;3.58;;;2.25;;
38465;SDS011;24244;51.950;5.902;2024-01-30T14:27:08;5.22;;;1.95;;
38465;SDS011;24244;51.950;5.902;2024-01-30T14:29:36;6.32;;;1.92;;
38465;SDS011;24244;51.950;5.902;2024-01-30T14:32:03;4.03;;;1.85;;
38465;SDS011;24244;51.950;5.902;2024-01-30T14:34:30;3.63;;;1.70;;
38465;SDS011;24244;51.950;5.902;2024-01-30T14:36:58;4.32;;;1.70;;
38465;SDS011;24244;51.950;5.902;2024-01-30T14:39:26;4.47;;;1.70;;
38465;SDS011;24244;51.950;5.902;2024-01-30T14:41:53;5.68;;;1.20;;
38465;SDS011;24244;51.950;5.902;2024-01-30T14:44:20;3.95;;;1.55;;
38465;SDS011;24244;51.950;5.902;2024-01-30T14:46:47;4.63;;;1.80;;
38465;SDS011;24244;51.950;5.902;2024-01-30T14:49:14;5.40;;;1.80;;
38465;SDS011;24244;51.950;5.902;2024-01-30T14:51:42;4.10;;;1.63;;